createdAt,value
2022-11-15T00:02:23.675Z,9.56
2022-11-15T00:05:09.820Z,9.54
2022-11-15T00:07:56.416Z,9.46
2022-11-15T00:10:42.286Z,9.59
2022-11-15T00:13:28.777Z,9.70
2022-11-15T00:16:15.294Z,9.53
2022-11-15T00:19:00.361Z,9.42
2022-11-15T00:21:46.090Z,9.68
2022-11-15T00:24:31.588Z,9.67
2022-11-15T00:27:17.109Z,9.76
2022-11-15T00:30:02.278Z,9.69
2022-11-15T00:32:48.133Z,9.45
2022-11-15T00:35:36.215Z,9.62
2022-11-15T00:38:22.906Z,9.80
2022-11-15T00:41:10.197Z,9.85
2022-11-15T00:43:55.518Z,9.91
2022-11-15T00:46:40.686Z,9.76
2022-11-15T00:49:25.957Z,9.79
2022-11-15T00:52:12.116Z,9.85
2022-11-15T00:54:59.297Z,9.82
2022-11-15T00:57:45.223Z,9.75
2022-11-15T01:00:33.471Z,9.90
2022-11-15T01:03:19.280Z,9.84
2022-11-15T01:06:10.779Z,9.91
2022-11-15T01:08:55.978Z,9.87
2022-11-15T01:11:41.784Z,9.93
2022-11-15T01:14:29.028Z,9.85
2022-11-15T01:17:14.260Z,9.80
2022-11-15T01:19:59.871Z,9.88
2022-11-15T01:22:47.335Z,9.87
2022-11-15T01:25:32.643Z,9.84
2022-11-15T01:28:21.433Z,9.93
2022-11-15T01:31:13.658Z,10.05
2022-11-15T01:33:58.690Z,9.91
2022-11-15T01:36:45.204Z,9.80
2022-11-15T01:39:30.689Z,9.99
2022-11-15T01:42:16.158Z,9.91
2022-11-15T01:45:02.466Z,9.94
2022-11-15T01:47:53.727Z,10.01
2022-11-15T01:50:40.320Z,10.04
2022-11-15T01:53:28.266Z,10.02
2022-11-15T01:56:19.318Z,10.14
2022-11-15T01:59:09.242Z,10.10
2022-11-15T02:04:46.129Z,10.15
2022-11-15T02:07:32.772Z,10.07
2022-11-15T02:10:21.268Z,10.12
2022-11-15T02:13:06.344Z,10.05
2022-11-15T02:16:28.420Z,10.02
2022-11-15T02:19:33.099Z,10.11
2022-11-15T02:22:39.972Z,10.09
2022-11-15T02:25:54.409Z,10.06
2022-11-15T02:28:48.698Z,10.06
2022-11-15T02:31:56.837Z,10.05
2022-11-15T02:34:58.845Z,10.03
2022-11-15T02:38:03.871Z,10.05
2022-11-15T02:41:03.773Z,10.09
2022-11-15T02:43:59.341Z,9.93
2022-11-15T02:47:16.196Z,10.02
2022-11-15T02:50:07.609Z,10.03
2022-11-15T02:52:52.763Z,10.06
2022-11-15T02:56:04.426Z,10.07
2022-11-15T02:59:14.533Z,10.11
2022-11-15T03:02:24.231Z,10.07
2022-11-15T03:05:14.872Z,10.05
2022-11-15T03:08:21.873Z,10.06
2022-11-15T03:11:14.566Z,10.03
2022-11-15T03:14:11.613Z,10.06
2022-11-15T03:17:17.910Z,10.07
2022-11-15T03:20:06.906Z,10.09
2022-11-15T03:22:54.163Z,10.10
2022-11-15T03:25:44.478Z,10.12
2022-11-15T03:28:35.111Z,10.03
2022-11-15T03:31:47.014Z,9.93
2022-11-15T03:34:43.823Z,10.06
2022-11-15T03:37:41.385Z,10.09
2022-11-15T03:40:41.045Z,10.10
2022-11-15T03:43:47.638Z,10.11
2022-11-15T03:46:49.015Z,10.08
2022-11-15T03:49:36.449Z,10.03
2022-11-15T03:52:23.169Z,10.00
2022-11-15T03:55:11.754Z,10.04
2022-11-15T03:58:00.074Z,9.97
2022-11-15T04:00:45.399Z,9.94
2022-11-15T04:03:30.683Z,9.95
2022-11-15T04:06:16.041Z,9.97
2022-11-15T04:09:01.133Z,9.99
2022-11-15T04:11:45.912Z,10.04
2022-11-15T04:14:30.870Z,9.92
2022-11-15T04:17:15.839Z,10.00
2022-11-15T04:20:19.433Z,9.99
2022-11-15T04:23:26.410Z,10.00
2022-11-15T04:26:21.781Z,9.95
2022-11-15T04:29:25.718Z,9.95
2022-11-15T04:32:10.939Z,9.88
2022-11-15T04:34:55.774Z,9.87
2022-11-15T04:37:43.923Z,9.89
2022-11-15T04:40:33.624Z,9.96
2022-11-15T04:43:18.681Z,9.93
2022-11-15T04:46:03.584Z,9.86
2022-11-15T04:48:48.812Z,9.85
2022-11-15T04:51:34.609Z,9.81
2022-11-15T04:54:19.914Z,9.89
2022-11-15T04:57:04.947Z,9.91
2022-11-15T04:59:49.918Z,9.88
2022-11-15T05:02:53.508Z,9.84
2022-11-15T05:05:38.669Z,9.85
2022-11-15T05:08:23.945Z,9.84
2022-11-15T05:11:08.854Z,9.81
2022-11-15T05:13:54.262Z,9.87
2022-11-15T05:16:39.705Z,9.89
2022-11-15T05:19:24.804Z,9.93
2022-11-15T05:22:09.843Z,9.81
2022-11-15T05:24:54.681Z,9.87
2022-11-15T05:27:39.714Z,9.88
2022-11-15T05:30:24.554Z,9.92
2022-11-15T05:33:09.482Z,9.92
2022-11-15T05:36:03.665Z,9.85
2022-11-15T05:38:49.278Z,9.82
2022-11-15T05:41:40.335Z,9.81
2022-11-15T05:44:27.421Z,9.73
2022-11-15T05:47:18.121Z,9.70
2022-11-15T05:50:03.706Z,10.45
2022-11-15T05:52:49.121Z,10.82
2022-11-15T05:55:34.897Z,11.19
2022-11-15T05:58:21.415Z,11.42
2022-11-15T06:01:06.361Z,11.65
2022-11-15T06:03:51.667Z,11.91
2022-11-15T06:06:36.607Z,12.10
2022-11-15T06:09:21.854Z,11.74
2022-11-15T06:12:07.245Z,11.26
2022-11-15T06:14:52.151Z,10.94
2022-11-15T06:17:37.070Z,10.65
2022-11-15T06:20:21.915Z,10.50
2022-11-15T06:23:06.943Z,10.36
2022-11-15T06:25:51.945Z,10.15
2022-11-15T06:28:37.367Z,9.97
2022-11-15T06:31:22.445Z,9.93
2022-11-15T06:34:07.330Z,9.88
2022-11-15T06:36:52.641Z,9.78
2022-11-15T06:39:37.648Z,9.64
2022-11-15T06:42:24.814Z,9.57
2022-11-15T06:45:09.936Z,9.42
2022-11-15T06:47:55.256Z,9.43
2022-11-15T06:50:40.489Z,9.30
2022-11-15T06:53:26.752Z,9.28
2022-11-15T06:56:11.929Z,9.25
2022-11-15T06:58:56.743Z,9.26
2022-11-15T07:01:41.812Z,9.23
2022-11-15T07:04:26.564Z,9.22
2022-11-15T07:07:11.587Z,9.21
2022-11-15T07:09:57.086Z,9.20
2022-11-15T07:12:41.976Z,9.17
2022-11-15T07:15:27.449Z,9.13
2022-11-15T07:18:12.661Z,9.07
2022-11-15T07:21:01.888Z,9.09
2022-11-15T07:23:46.906Z,9.12
2022-11-15T07:26:31.637Z,9.13
2022-11-15T07:29:16.552Z,9.16
2022-11-15T07:32:01.773Z,9.12
2022-11-15T07:34:47.237Z,9.13
2022-11-15T07:37:32.353Z,9.11
2022-11-15T07:40:17.422Z,9.09
2022-11-15T07:43:05.580Z,9.12
2022-11-15T07:45:56.000Z,9.17
2022-11-15T07:48:45.377Z,9.12
2022-11-15T07:51:30.814Z,9.12
2022-11-15T07:54:15.851Z,9.14
2022-11-15T07:57:06.619Z,9.15
2022-11-15T07:59:52.944Z,9.09
2022-11-15T08:02:38.449Z,9.12
2022-11-15T08:05:23.693Z,9.11
2022-11-15T08:08:12.705Z,9.09
2022-11-15T08:11:01.559Z,9.12
2022-11-15T08:13:46.428Z,9.18
2022-11-15T08:16:31.444Z,9.25
2022-11-15T08:19:16.630Z,9.33
2022-11-15T08:22:01.848Z,9.34
2022-11-15T08:24:46.831Z,9.36
2022-11-15T08:27:31.763Z,9.40
2022-11-15T08:30:17.031Z,9.50
2022-11-15T08:33:01.927Z,9.53
2022-11-15T08:35:46.890Z,9.49
2022-11-15T08:38:32.462Z,9.54
2022-11-15T08:41:34.522Z,9.49
2022-11-15T08:44:19.432Z,9.38
2022-11-15T08:47:04.461Z,9.63
2022-11-15T08:49:49.716Z,9.69
2022-11-15T08:52:34.913Z,9.69
2022-11-15T08:55:22.179Z,9.69
2022-11-15T08:58:09.697Z,9.65
2022-11-15T09:00:54.849Z,9.71
2022-11-15T09:03:41.351Z,9.76
2022-11-15T09:06:26.538Z,9.71
2022-11-15T09:09:11.584Z,9.79
2022-11-15T09:12:01.181Z,9.77
2022-11-15T09:14:47.725Z,9.82
2022-11-15T09:17:32.781Z,9.94
2022-11-15T09:20:17.773Z,9.96
2022-11-15T09:23:04.007Z,10.02
2022-11-15T09:25:49.366Z,10.03
2022-11-15T09:28:35.525Z,10.09
2022-11-15T09:31:22.458Z,10.13
2022-11-15T09:34:07.664Z,10.19
2022-11-15T09:36:52.816Z,10.22
2022-11-15T09:39:37.991Z,10.25
2022-11-15T09:42:52.732Z,10.30
2022-11-15T09:46:02.475Z,10.39
2022-11-15T09:49:04.865Z,10.47
2022-11-15T09:51:47.704Z,10.56
2022-11-15T09:54:54.826Z,10.62
2022-11-15T09:57:32.689Z,10.69
2022-11-15T10:03:17.435Z,10.79
2022-11-15T10:05:48.608Z,10.80
2022-11-15T10:08:27.761Z,10.84
2022-11-15T10:11:35.560Z,10.89
2022-11-15T10:13:54.472Z,10.97
2022-11-15T10:16:45.862Z,10.91
2022-11-15T10:19:24.673Z,10.98
2022-11-15T10:22:22.052Z,11.02
2022-11-15T10:24:49.043Z,11.02
2022-11-15T10:27:20.175Z,10.97
2022-11-15T10:29:51.608Z,11.04
2022-11-15T10:32:20.581Z,11.13
2022-11-15T10:34:49.052Z,11.21
2022-11-15T10:37:15.667Z,11.31
2022-11-15T10:39:42.170Z,11.42
2022-11-15T10:42:29.971Z,11.69
2022-11-15T10:44:56.412Z,11.86
2022-11-15T10:47:29.213Z,11.87
2022-11-15T10:50:08.426Z,11.92
2022-11-15T10:52:37.491Z,11.98
2022-11-15T10:55:25.111Z,12.05
2022-11-15T10:57:54.749Z,12.09
2022-11-15T11:00:21.240Z,12.03
2022-11-15T11:02:56.928Z,11.84
2022-11-15T11:05:49.847Z,11.95
2022-11-15T11:08:16.237Z,11.85
2022-11-15T11:11:02.049Z,11.91
2022-11-15T11:13:40.777Z,11.91
2022-11-15T11:16:16.147Z,11.87
2022-11-15T11:19:13.635Z,11.88
2022-11-15T11:22:02.599Z,11.96
2022-11-15T11:24:32.281Z,11.83
2022-11-15T11:27:41.020Z,11.60
2022-11-15T11:30:31.779Z,11.73
2022-11-15T11:33:04.387Z,11.68
2022-11-15T11:35:51.021Z,11.71
2022-11-15T11:38:40.379Z,11.77
2022-11-15T11:41:45.501Z,11.68
2022-11-15T11:44:39.372Z,11.79
2022-11-15T11:47:16.189Z,11.89
2022-11-15T11:49:53.582Z,11.95
2022-11-15T11:52:36.684Z,12.06
2022-11-15T11:55:27.297Z,12.09
2022-11-15T11:58:12.545Z,12.21
2022-11-15T12:01:08.534Z,12.00
2022-11-15T12:03:46.680Z,12.12
2022-11-15T12:06:18.961Z,12.16
2022-11-15T12:09:01.841Z,12.11
2022-11-15T12:11:51.795Z,12.11
2022-11-15T12:14:29.730Z,11.93
2022-11-15T12:16:56.294Z,12.21
2022-11-15T12:19:22.858Z,12.24
2022-11-15T12:22:09.794Z,12.11
2022-11-15T12:24:43.123Z,12.19
2022-11-15T12:27:48.658Z,12.31
2022-11-15T12:30:21.890Z,12.32
2022-11-15T12:32:59.947Z,12.23
2022-11-15T12:35:36.434Z,12.04
2022-11-15T12:38:03.301Z,12.21
2022-11-15T12:40:31.230Z,12.17
2022-11-15T12:43:02.669Z,12.16
2022-11-15T12:45:35.288Z,12.24
2022-11-15T12:48:17.055Z,12.15
2022-11-15T12:50:54.338Z,12.17
2022-11-15T12:53:24.069Z,12.26
2022-11-15T12:56:10.651Z,12.33
2022-11-15T12:58:49.494Z,12.40
2022-11-15T13:01:31.287Z,12.37
2022-11-15T13:04:28.093Z,12.33
2022-11-15T13:06:56.601Z,12.14
2022-11-15T13:09:46.294Z,12.28
2022-11-15T13:12:28.260Z,12.43
2022-11-15T13:15:08.671Z,12.50
2022-11-15T13:17:56.253Z,12.49
2022-11-15T13:20:27.109Z,12.52
2022-11-15T13:23:05.665Z,12.42
2022-11-15T13:26:11.443Z,12.34
2022-11-15T13:28:50.428Z,12.38
2022-11-15T13:31:38.614Z,12.41
2022-11-15T13:34:44.231Z,12.19
2022-11-15T13:37:03.357Z,12.10
2022-11-15T13:39:32.821Z,12.10
2022-11-15T13:42:00.173Z,12.09
2022-11-15T13:44:29.347Z,12.18
2022-11-15T13:47:14.974Z,12.02
2022-11-15T13:49:42.107Z,12.15
2022-11-15T13:52:14.964Z,12.07
2022-11-15T13:54:52.081Z,11.94
2022-11-15T13:57:24.298Z,11.90
2022-11-15T13:59:56.404Z,11.98
2022-11-15T14:02:27.815Z,11.88
2022-11-15T14:04:57.755Z,12.01
2022-11-15T14:07:26.815Z,11.98
2022-11-15T14:09:53.522Z,11.95
2022-11-15T14:12:26.634Z,11.99
2022-11-15T14:14:53.768Z,12.05
2022-11-15T14:17:33.230Z,11.98
2022-11-15T14:19:59.817Z,11.91
2022-11-15T14:22:29.282Z,11.86
2022-11-15T14:25:39.223Z,11.93
2022-11-15T14:28:24.115Z,12.04
2022-11-15T14:30:54.939Z,11.95
2022-11-15T14:33:31.773Z,11.93
2022-11-15T14:36:04.593Z,11.96
2022-11-15T14:38:31.366Z,11.91
2022-11-15T14:40:58.583Z,11.91
2022-11-15T14:43:25.380Z,11.94
2022-11-15T14:45:51.916Z,12.01
2022-11-15T14:48:18.699Z,12.00
2022-11-15T14:50:45.834Z,11.84
2022-11-15T14:53:20.043Z,11.86
2022-11-15T14:55:46.710Z,11.87
2022-11-15T14:58:13.250Z,11.71
2022-11-15T15:00:41.804Z,11.75
2022-11-15T15:03:08.650Z,11.69
2022-11-15T15:05:36.378Z,11.73
2022-11-15T15:08:03.628Z,11.73
2022-11-15T15:10:40.629Z,11.69
2022-11-15T15:13:15.759Z,11.61
2022-11-15T15:15:42.191Z,11.62
2022-11-15T15:18:09.504Z,11.49
2022-11-15T15:20:38.313Z,11.45
2022-11-15T15:23:04.799Z,11.47
2022-11-15T15:25:33.766Z,11.44
2022-11-15T15:28:00.575Z,11.50
2022-11-15T15:30:30.605Z,11.47
2022-11-15T15:32:57.293Z,11.51
2022-11-15T15:35:24.004Z,11.47
2022-11-15T15:37:52.056Z,11.41
2022-11-15T15:40:21.462Z,11.30
2022-11-15T15:42:48.929Z,11.37
2022-11-15T15:45:17.017Z,11.25
2022-11-15T15:47:44.152Z,11.31
2022-11-15T15:50:25.811Z,11.24
2022-11-15T15:52:54.026Z,11.22
2022-11-15T15:55:21.290Z,11.24
2022-11-15T15:57:48.115Z,11.28
2022-11-15T16:00:15.482Z,11.18
2022-11-15T16:02:42.444Z,11.09
2022-11-15T16:05:09.784Z,11.09
2022-11-15T16:07:36.988Z,11.17
2022-11-15T16:10:26.261Z,11.02
2022-11-15T16:12:54.009Z,10.96
2022-11-15T16:15:21.543Z,11.05
2022-11-15T16:17:52.048Z,10.90
2022-11-15T16:20:40.218Z,10.99
2022-11-15T16:23:09.979Z,11.05
2022-11-15T16:25:51.353Z,11.02
2022-11-15T16:28:23.927Z,10.99
2022-11-15T16:31:00.738Z,10.83
2022-11-15T16:33:27.184Z,10.96
2022-11-15T16:35:53.783Z,11.02
2022-11-15T16:38:20.483Z,11.07
2022-11-15T16:40:47.081Z,11.09
2022-11-15T16:43:13.662Z,11.07
2022-11-15T16:45:40.209Z,10.98
2022-11-15T16:48:06.784Z,10.99
2022-11-15T16:50:41.511Z,11.01
2022-11-15T16:53:08.062Z,10.98
2022-11-15T16:55:34.632Z,10.86
2022-11-15T16:58:01.836Z,10.84
2022-11-15T17:00:28.400Z,10.88
2022-11-15T17:02:56.034Z,10.84
2022-11-15T17:05:24.147Z,10.79
2022-11-15T17:07:55.205Z,10.75
2022-11-15T17:10:23.365Z,10.70
2022-11-15T17:12:51.409Z,10.64
2022-11-15T17:15:18.210Z,10.61
2022-11-15T17:17:45.250Z,10.63
2022-11-15T17:20:17.262Z,10.59
2022-11-15T17:22:43.930Z,10.70
2022-11-15T17:25:11.482Z,10.61
2022-11-15T17:27:38.009Z,10.68
2022-11-15T17:30:05.741Z,10.65
2022-11-15T17:32:32.335Z,10.69
2022-11-15T17:34:58.772Z,10.71
2022-11-15T17:37:25.202Z,10.67
2022-11-15T17:39:51.658Z,10.37
2022-11-15T17:42:18.085Z,10.66
2022-11-15T17:44:44.540Z,10.65
2022-11-15T17:47:10.976Z,10.63
2022-11-15T17:49:40.629Z,10.75
2022-11-15T17:52:07.913Z,10.70
2022-11-15T17:54:34.711Z,10.68
2022-11-15T17:57:01.158Z,10.70
2022-11-15T17:59:27.636Z,10.58
2022-11-15T18:01:54.101Z,10.73
2022-11-15T18:04:20.642Z,10.56
2022-11-15T18:06:47.470Z,10.50
2022-11-15T18:09:14.014Z,10.50
2022-11-15T18:11:43.115Z,10.50
2022-11-15T18:14:15.157Z,10.57
2022-11-15T18:16:42.354Z,10.57
2022-11-15T18:19:13.153Z,10.59
2022-11-15T18:21:57.150Z,10.46
2022-11-15T18:24:24.189Z,10.60
2022-11-15T18:26:50.750Z,10.62
2022-11-15T18:29:17.484Z,10.61
2022-11-15T18:31:47.681Z,10.65
2022-11-15T18:34:14.582Z,10.63
2022-11-15T18:36:41.282Z,10.61
2022-11-15T18:39:07.754Z,10.65
2022-11-15T18:41:34.572Z,10.61
2022-11-15T18:44:02.524Z,10.78
2022-11-15T18:46:31.385Z,11.16
2022-11-15T18:48:59.848Z,11.36
2022-11-15T18:51:32.149Z,11.42
2022-11-15T18:54:00.868Z,11.54
2022-11-15T18:56:29.108Z,11.33
2022-11-15T18:58:57.509Z,11.21
2022-11-15T19:01:29.560Z,11.04
2022-11-15T19:03:58.001Z,10.92
2022-11-15T19:06:27.078Z,10.91
2022-11-15T19:08:56.183Z,10.78
2022-11-15T19:11:26.994Z,10.75
2022-11-15T19:13:58.861Z,10.68
2022-11-15T19:16:26.919Z,10.69
2022-11-15T19:18:58.346Z,10.67
2022-11-15T19:21:26.198Z,10.67
2022-11-15T19:23:54.100Z,10.58
2022-11-15T19:26:22.291Z,10.64
2022-11-15T19:28:59.888Z,10.65
2022-11-15T19:31:28.442Z,10.53
2022-11-15T19:33:55.952Z,10.47
2022-11-15T19:36:26.746Z,10.53
2022-11-15T19:38:54.691Z,10.51
2022-11-15T19:41:22.991Z,10.53
2022-11-15T19:43:52.792Z,10.47
2022-11-15T19:46:21.807Z,10.50
2022-11-15T19:48:48.300Z,10.39
2022-11-15T19:51:19.302Z,10.38
2022-11-15T19:53:45.968Z,10.38
2022-11-15T19:56:14.696Z,10.34
2022-11-15T19:58:42.104Z,10.24
2022-11-15T20:01:23.999Z,10.27
2022-11-15T20:03:54.445Z,10.27
2022-11-15T20:06:23.354Z,10.25
2022-11-15T20:08:50.138Z,10.21
2022-11-15T20:11:17.177Z,10.25
2022-11-15T20:13:43.773Z,10.21
2022-11-15T20:16:21.802Z,10.18
2022-11-15T20:18:51.595Z,10.24
2022-11-15T20:21:18.806Z,10.15
2022-11-15T20:23:45.658Z,10.21
2022-11-15T20:26:14.131Z,10.13
2022-11-15T20:28:40.958Z,10.14
2022-11-15T20:31:09.388Z,10.12
2022-11-15T20:33:35.982Z,9.97
2022-11-15T20:36:13.552Z,10.29
2022-11-15T20:38:40.076Z,10.32
2022-11-15T20:41:06.819Z,10.26
2022-11-15T20:43:33.368Z,10.24
2022-11-15T20:45:59.871Z,10.24
2022-11-15T20:48:27.108Z,10.17
2022-11-15T20:51:04.146Z,10.17
2022-11-15T20:53:31.775Z,10.15
2022-11-15T20:56:07.626Z,10.21
2022-11-15T20:58:35.746Z,10.18
2022-11-15T21:01:02.948Z,10.14
2022-11-15T21:03:29.760Z,10.16
2022-11-15T21:05:56.228Z,10.12
2022-11-15T21:08:22.748Z,10.09
2022-11-15T21:11:09.807Z,10.13
2022-11-15T21:13:37.143Z,10.02
2022-11-15T21:16:04.397Z,9.95
2022-11-15T21:18:32.128Z,9.92
2022-11-15T21:21:05.726Z,9.90
2022-11-15T21:23:32.294Z,9.81
2022-11-15T21:25:58.984Z,9.85
2022-11-15T21:28:25.506Z,9.83
2022-11-15T21:30:57.260Z,9.70
2022-11-15T21:33:23.941Z,9.63
2022-11-15T21:35:51.372Z,9.67
2022-11-15T21:38:18.789Z,9.84
2022-11-15T21:40:45.474Z,9.69
2022-11-15T21:43:11.897Z,9.77
2022-11-15T21:45:38.735Z,9.71
2022-11-15T21:48:05.676Z,9.79
2022-11-15T21:50:32.139Z,9.74
2022-11-15T21:52:58.575Z,9.71
2022-11-15T21:55:25.147Z,9.80
2022-11-15T21:57:51.667Z,9.76
2022-11-15T22:00:37.311Z,9.70
2022-11-15T22:03:03.854Z,9.74
2022-11-15T22:05:30.323Z,9.67
2022-11-15T22:07:56.750Z,9.77
2022-11-15T22:10:23.168Z,9.79
2022-11-15T22:12:49.637Z,9.73
2022-11-15T22:15:16.234Z,9.81
2022-11-15T22:17:57.880Z,9.71
2022-11-15T22:23:11.155Z,9.88
2022-11-15T22:25:37.605Z,9.93
2022-11-15T22:28:04.222Z,9.83
2022-11-15T22:30:30.776Z,9.85
2022-11-15T22:32:57.262Z,9.78
2022-11-15T22:35:23.702Z,9.88
2022-11-15T22:37:50.155Z,9.86
2022-11-15T22:40:16.929Z,9.78
2022-11-15T22:42:43.411Z,9.73
2022-11-15T22:45:10.081Z,9.62
2022-11-15T22:47:36.596Z,9.58
2022-11-15T22:50:04.181Z,9.46
2022-11-15T22:52:30.660Z,9.59
2022-11-15T22:54:57.596Z,9.52
2022-11-15T22:57:24.044Z,9.54
2022-11-15T22:59:50.512Z,9.43
2022-11-15T23:02:16.971Z,9.45
2022-11-15T23:04:43.649Z,9.33
2022-11-15T23:07:10.200Z,9.45
2022-11-15T23:09:37.781Z,9.47
2022-11-15T23:12:23.271Z,9.45
2022-11-15T23:14:49.769Z,9.45
2022-11-15T23:17:16.345Z,9.48
2022-11-15T23:19:42.760Z,9.46
2022-11-15T23:22:27.926Z,9.56
2022-11-15T23:24:55.787Z,9.62
2022-11-15T23:27:22.845Z,9.57
2022-11-15T23:30:08.113Z,9.62
2022-11-15T23:32:53.090Z,9.65
2022-11-15T23:35:19.637Z,9.71
2022-11-15T23:37:46.166Z,9.73
2022-11-15T23:40:13.037Z,9.71
2022-11-15T23:42:39.511Z,9.64
2022-11-15T23:45:06.967Z,9.57
2022-11-15T23:47:33.462Z,9.68
2022-11-15T23:49:59.983Z,9.52
2022-11-15T23:52:26.471Z,9.47
2022-11-15T23:54:52.913Z,9.56
2022-11-15T23:57:19.384Z,9.53
2022-11-15T23:59:46.253Z,9.22
